createdAt,value
2019-03-11T00:06:09.824Z,2.50
2019-03-11T00:08:49.529Z,3.60
2019-03-11T00:21:02.278Z,2.90
2019-03-11T00:24:03.291Z,3.27
2019-03-11T00:26:39.309Z,1.80
2019-03-11T00:29:08.542Z,2.53
2019-03-11T00:31:44.019Z,1.87
2019-03-11T00:34:30.102Z,1.67
2019-03-11T00:37:00.042Z,2.53
2019-03-11T00:39:29.954Z,2.30
2019-03-11T00:42:13.237Z,2.30
2019-03-11T00:44:51.056Z,1.90
2019-03-11T00:47:20.000Z,1.60
2019-03-11T00:49:55.346Z,2.23
2019-03-11T00:52:28.106Z,2.43
2019-03-11T00:55:04.135Z,1.87
2019-03-11T00:57:42.443Z,1.80
2019-03-11T01:00:25.911Z,2.00
2019-03-11T01:02:55.603Z,1.97
2019-03-11T01:05:25.064Z,2.40
2019-03-11T01:07:54.676Z,2.27
2019-03-11T01:10:25.580Z,2.37
2019-03-11T01:12:55.119Z,2.13
2019-03-11T01:15:24.269Z,1.83
2019-03-11T01:17:56.737Z,1.90
2019-03-11T01:20:27.515Z,1.40
2019-03-11T01:23:00.405Z,2.13
2019-03-11T01:28:40.886Z,1.53
2019-03-11T01:31:13.258Z,1.50
2019-03-11T02:40:05.190Z,2.13
2019-03-11T02:58:03.880Z,2.00
2019-03-11T03:01:23.591Z,1.80
2019-03-11T03:04:00.629Z,2.20
2019-03-11T03:06:29.601Z,1.57
2019-03-11T03:08:58.643Z,1.40
2019-03-11T03:11:27.711Z,2.20
2019-03-11T03:13:56.704Z,2.77
2019-03-11T03:16:25.538Z,2.70
2019-03-11T03:18:54.487Z,2.23
2019-03-11T03:21:23.450Z,2.20
2019-03-11T03:23:52.266Z,1.97
2019-03-11T03:26:21.359Z,2.70
2019-03-11T03:28:50.211Z,2.70
2019-03-11T03:31:19.058Z,2.40
2019-03-11T03:33:48.042Z,2.40
2019-03-11T03:36:17.053Z,2.47
2019-03-11T03:38:46.095Z,4.00
2019-03-11T03:41:15.014Z,2.30
2019-03-11T03:43:43.943Z,1.83
2019-03-11T03:46:18.703Z,2.30
2019-03-11T03:48:43.501Z,2.80
2019-03-11T03:51:12.602Z,2.97
2019-03-11T03:53:41.713Z,2.30
2019-03-11T03:56:10.558Z,2.37
2019-03-11T03:58:39.609Z,3.30
2019-03-11T04:01:08.458Z,2.70
2019-03-11T04:03:37.369Z,2.63
2019-03-11T04:06:06.393Z,2.63
2019-03-11T04:08:35.398Z,2.57
2019-03-11T04:11:04.829Z,2.63
2019-03-11T04:13:34.238Z,2.43
2019-03-11T04:16:03.391Z,2.40
2019-03-11T04:18:53.648Z,2.70
2019-03-11T04:21:22.635Z,2.10
2019-03-11T04:23:51.833Z,2.47
2019-03-11T04:26:20.702Z,2.30
2019-03-11T04:28:49.687Z,2.27
2019-03-11T04:31:18.593Z,2.47
2019-03-11T04:33:47.455Z,2.53
2019-03-11T04:36:16.479Z,2.43
2019-03-11T04:38:45.450Z,3.77
2019-03-11T04:41:14.299Z,2.40
2019-03-11T04:43:43.370Z,2.27
2019-03-11T04:46:12.271Z,2.70
2019-03-11T04:48:41.609Z,2.90
2019-03-11T04:51:10.592Z,2.40
2019-03-11T04:53:39.429Z,2.83
2019-03-11T04:56:08.306Z,3.00
2019-03-11T04:58:37.282Z,2.40
2019-03-11T05:01:06.211Z,2.60
2019-03-11T05:03:35.206Z,2.80
2019-03-11T05:06:04.169Z,2.33
2019-03-11T05:08:33.013Z,2.17
2019-03-11T05:11:01.975Z,1.20
2019-03-11T05:13:30.931Z,1.00
2019-03-11T05:15:59.998Z,0.90
2019-03-11T05:18:29.115Z,0.77
2019-03-11T05:20:57.999Z,0.67
2019-03-11T05:23:26.849Z,0.90
2019-03-11T05:25:55.826Z,1.50
2019-03-11T05:28:24.836Z,0.80
2019-03-11T05:30:53.831Z,0.80
2019-03-11T05:33:22.654Z,1.07
2019-03-11T05:35:51.629Z,0.90
2019-03-11T05:38:20.541Z,1.10
2019-03-11T05:40:49.405Z,1.50
2019-03-11T05:43:18.310Z,1.27
2019-03-11T05:45:47.193Z,1.37
2019-03-11T05:48:16.098Z,1.20
2019-03-11T05:50:45.170Z,1.73
2019-03-11T05:53:14.286Z,1.33
2019-03-11T05:55:43.357Z,1.47
2019-03-11T05:58:12.235Z,1.53
2019-03-11T06:00:41.469Z,1.63
2019-03-11T06:03:10.385Z,2.53
2019-03-11T06:05:39.494Z,2.30
2019-03-11T06:08:11.438Z,1.80
2019-03-11T06:10:40.277Z,1.60
2019-03-11T06:13:09.165Z,3.33
2019-03-11T06:15:37.951Z,1.33
2019-03-11T06:18:06.878Z,1.40
2019-03-11T06:20:40.660Z,1.00
2019-03-11T06:23:10.534Z,1.60
2019-03-11T06:25:39.451Z,1.90
2019-03-11T06:28:08.502Z,1.93
2019-03-11T06:30:37.635Z,1.47
2019-03-11T06:33:06.573Z,1.80
2019-03-11T06:35:35.671Z,2.03
2019-03-11T06:38:04.682Z,2.10
2019-03-11T06:40:33.587Z,2.63
2019-03-11T06:43:02.410Z,3.13
2019-03-11T06:45:31.308Z,2.63
2019-03-11T06:48:00.161Z,2.43
2019-03-11T06:50:29.238Z,2.63
2019-03-11T06:52:58.404Z,2.80
2019-03-11T06:55:27.385Z,2.37
2019-03-11T06:57:56.293Z,3.13
2019-03-11T07:00:25.243Z,1.97
2019-03-11T07:02:54.080Z,2.40
2019-03-11T07:05:22.957Z,2.60
2019-03-11T07:07:51.873Z,2.20
2019-03-11T07:10:20.829Z,2.63
2019-03-11T07:12:49.994Z,2.63
2019-03-11T07:15:19.075Z,2.37
2019-03-11T07:17:48.078Z,3.10
2019-03-11T07:20:17.064Z,2.40
2019-03-11T07:22:46.082Z,2.47
2019-03-11T07:25:15.146Z,2.60
2019-03-11T07:27:44.007Z,1.70
2019-03-11T07:30:13.253Z,2.27
2019-03-11T07:32:42.172Z,2.90
2019-03-11T07:35:11.048Z,2.93
2019-03-11T07:37:40.110Z,3.57
2019-03-11T07:40:09.485Z,4.43
2019-03-11T07:42:38.463Z,3.87
2019-03-11T07:45:07.486Z,4.03
2019-03-11T07:47:36.389Z,3.80
2019-03-11T07:50:05.862Z,3.37
2019-03-11T07:52:34.827Z,3.27
2019-03-11T07:55:03.986Z,3.23
2019-03-11T07:57:32.787Z,2.93
2019-03-11T08:00:01.639Z,2.40
2019-03-11T08:02:30.690Z,3.10
2019-03-11T08:04:59.534Z,2.53
2019-03-11T08:07:28.387Z,2.93
2019-03-11T08:09:57.241Z,3.23
2019-03-11T08:12:26.157Z,2.27
2019-03-11T08:14:54.973Z,2.67
2019-03-11T08:17:23.825Z,2.80
2019-03-11T08:19:52.666Z,3.30
2019-03-11T08:22:21.435Z,3.23
2019-03-11T08:24:50.277Z,2.37
2019-03-11T08:27:19.154Z,3.00
2019-03-11T08:29:48.051Z,2.80
2019-03-11T08:32:16.939Z,2.90
2019-03-11T08:34:45.791Z,3.10
2019-03-11T08:37:14.617Z,2.63
2019-03-11T08:39:43.474Z,2.47
2019-03-11T08:42:12.285Z,3.53
2019-03-11T08:44:41.133Z,3.27
2019-03-11T08:47:10.064Z,2.80
2019-03-11T08:49:38.961Z,3.00
2019-03-11T08:52:07.899Z,3.00
2019-03-11T08:54:36.807Z,3.10
2019-03-11T08:57:06.082Z,3.30
2019-03-11T08:59:34.994Z,3.43
2019-03-11T09:02:03.946Z,3.23
2019-03-11T09:04:32.872Z,3.17
2019-03-11T09:07:01.771Z,3.10
2019-03-11T09:09:31.829Z,3.37
2019-03-11T09:12:00.790Z,2.93
2019-03-11T09:14:29.640Z,2.60
2019-03-11T09:16:58.640Z,3.10
2019-03-11T09:19:27.489Z,3.50
2019-03-11T09:21:56.363Z,3.10
2019-03-11T09:24:25.274Z,3.20
2019-03-11T09:26:54.074Z,3.57
2019-03-11T09:29:22.935Z,3.77
2019-03-11T09:31:51.798Z,3.40
2019-03-11T09:34:20.620Z,2.70
2019-03-11T09:36:49.827Z,3.47
2019-03-11T09:39:18.912Z,3.10
2019-03-11T09:41:47.791Z,3.30
2019-03-11T09:44:16.630Z,2.90
2019-03-11T09:46:45.587Z,2.73
2019-03-11T09:49:14.382Z,2.77
2019-03-11T09:51:43.361Z,3.43
2019-03-11T09:54:12.526Z,3.13
2019-03-11T09:56:43.657Z,3.00
2019-03-11T09:59:12.013Z,2.73
2019-03-11T10:01:41.040Z,3.00
2019-03-11T10:04:09.887Z,3.47
2019-03-11T10:06:38.725Z,2.47
2019-03-11T10:09:08.171Z,2.47
2019-03-11T10:11:36.979Z,2.30
2019-03-11T10:14:05.906Z,3.13
2019-03-11T10:16:35.106Z,3.83
2019-03-11T10:19:04.023Z,2.20
2019-03-11T10:21:32.959Z,4.03
2019-03-11T10:24:01.822Z,5.20
2019-03-11T10:26:30.676Z,3.40
2019-03-11T10:28:59.674Z,3.87
2019-03-11T10:31:28.485Z,2.97
2019-03-11T10:33:57.492Z,2.87
2019-03-11T10:36:26.374Z,3.40
2019-03-11T10:38:55.226Z,4.20
2019-03-11T10:41:24.181Z,3.83
2019-03-11T10:43:53.135Z,4.47
2019-03-11T10:46:21.951Z,3.03
2019-03-11T10:48:50.849Z,3.53
2019-03-11T10:51:19.638Z,2.90
2019-03-11T10:53:48.851Z,2.57
2019-03-11T10:56:17.697Z,2.83
2019-03-11T10:58:46.633Z,3.63
2019-03-11T11:01:15.590Z,3.50
2019-03-11T11:03:44.541Z,3.10
2019-03-11T11:06:13.862Z,2.70
2019-03-11T11:08:42.883Z,3.60
2019-03-11T11:11:11.797Z,3.83
2019-03-11T11:13:40.733Z,3.50
2019-03-11T11:16:09.828Z,3.43
2019-03-11T11:18:38.837Z,3.03
2019-03-11T11:21:07.723Z,2.90
2019-03-11T11:23:36.666Z,3.67
2019-03-11T11:26:05.716Z,2.20
2019-03-11T11:28:34.526Z,3.23
2019-03-11T11:31:03.493Z,4.30
2019-03-11T11:33:32.439Z,3.73
2019-03-11T11:36:01.266Z,3.90
2019-03-11T11:38:30.159Z,4.10
2019-03-11T11:40:59.143Z,3.80
2019-03-11T11:43:28.097Z,3.93
2019-03-11T11:45:57.234Z,4.57
2019-03-11T11:48:26.038Z,4.77
2019-03-11T11:50:54.901Z,4.33
2019-03-11T11:53:25.289Z,4.13
2019-03-11T11:55:58.078Z,4.93
2019-03-11T11:58:25.138Z,3.97
2019-03-11T12:00:54.074Z,2.23
2019-03-11T12:03:23.007Z,3.47
2019-03-11T12:05:52.030Z,2.50
2019-03-11T12:08:21.022Z,3.47
2019-03-11T12:10:49.838Z,2.40
2019-03-11T12:13:18.910Z,3.20
2019-03-11T12:15:47.920Z,3.57
2019-03-11T12:18:16.974Z,3.80
2019-03-11T12:20:45.903Z,3.20
2019-03-11T12:23:14.934Z,3.17
2019-03-11T12:25:43.828Z,3.13
2019-03-11T12:28:12.948Z,3.33
2019-03-11T12:30:42.285Z,2.87
2019-03-11T12:33:11.217Z,1.80
2019-03-11T12:35:40.178Z,2.30
2019-03-11T12:38:09.182Z,2.70
2019-03-11T12:40:38.226Z,3.93
2019-03-11T12:43:07.243Z,2.57
2019-03-11T12:45:36.254Z,2.60
2019-03-11T12:48:05.406Z,2.63
2019-03-11T12:50:34.400Z,2.33
2019-03-11T12:53:03.393Z,2.33
2019-03-11T12:55:32.411Z,1.10
2019-03-11T12:58:01.392Z,3.73
2019-03-11T13:00:30.346Z,1.97
2019-03-11T13:02:59.489Z,1.57
2019-03-11T13:05:28.479Z,1.63
2019-03-11T13:07:57.276Z,1.93
2019-03-11T13:10:26.539Z,2.67
2019-03-11T13:12:55.775Z,2.20
2019-03-11T13:15:24.818Z,1.77
2019-03-11T13:17:53.818Z,2.13
2019-03-11T13:20:26.398Z,2.67
2019-03-11T13:22:55.388Z,2.10
2019-03-11T13:25:24.612Z,2.20
2019-03-11T13:27:53.572Z,2.13
2019-03-11T13:30:22.608Z,1.77
2019-03-11T13:32:51.670Z,1.40
2019-03-11T13:35:20.672Z,1.97
2019-03-11T13:37:49.699Z,1.37
2019-03-11T13:40:18.642Z,2.10
2019-03-11T13:42:50.438Z,1.60
2019-03-11T13:45:19.682Z,2.17
2019-03-11T13:47:48.692Z,1.60
2019-03-11T13:50:17.865Z,2.80
2019-03-11T13:52:47.055Z,4.33
2019-03-11T13:55:16.272Z,2.77
2019-03-11T13:57:45.265Z,1.37
2019-03-11T14:00:14.918Z,2.30
2019-03-11T14:02:43.842Z,2.00
2019-03-11T14:05:12.839Z,1.87
2019-03-11T14:07:41.793Z,2.47
2019-03-11T14:10:11.353Z,1.40
2019-03-11T14:12:40.162Z,1.40
2019-03-11T14:15:09.461Z,1.70
2019-03-11T14:17:38.270Z,1.97
2019-03-11T14:20:07.412Z,1.60
2019-03-11T14:22:36.233Z,1.63
2019-03-11T14:25:05.386Z,2.30
2019-03-11T14:27:34.313Z,1.90
2019-03-11T14:30:03.321Z,1.60
2019-03-11T14:32:32.165Z,1.93
2019-03-11T14:35:01.074Z,1.70
2019-03-11T14:37:30.007Z,1.43
2019-03-11T14:39:59.191Z,1.70
2019-03-11T14:42:28.086Z,1.90
2019-03-11T14:44:57.038Z,1.93
2019-03-11T14:47:26.041Z,1.80
2019-03-11T14:49:54.929Z,2.07
2019-03-11T14:52:23.777Z,1.93
2019-03-11T14:54:53.046Z,2.20
2019-03-11T14:57:22.017Z,1.80
2019-03-11T14:59:51.150Z,1.23
2019-03-11T15:02:20.068Z,1.03
2019-03-11T15:04:50.950Z,2.40
2019-03-11T15:07:19.571Z,3.77
2019-03-11T15:09:51.559Z,2.47
2019-03-11T15:12:18.995Z,2.27
2019-03-11T15:14:47.970Z,2.00
2019-03-11T15:17:16.974Z,1.77
2019-03-11T15:19:46.119Z,2.00
2019-03-11T15:22:14.981Z,1.90
2019-03-11T15:24:43.904Z,1.67
2019-03-11T15:27:12.826Z,1.40
2019-03-11T15:29:41.744Z,2.10
2019-03-11T15:32:10.758Z,1.07
2019-03-11T15:34:39.551Z,2.80
2019-03-11T15:37:08.638Z,2.20
2019-03-11T15:39:37.654Z,1.77
2019-03-11T15:42:07.718Z,1.83
2019-03-11T15:44:36.770Z,1.90
2019-03-11T15:47:05.581Z,1.10
2019-03-11T15:49:34.435Z,1.60
2019-03-11T15:52:03.270Z,1.53
2019-03-11T15:54:32.119Z,1.23
2019-03-11T15:57:01.042Z,1.80
2019-03-11T15:59:30.086Z,1.67
2019-03-11T16:01:59.115Z,1.60
2019-03-11T16:04:27.994Z,1.47
2019-03-11T16:06:56.909Z,1.17
2019-03-11T16:09:25.904Z,1.90
2019-03-11T16:11:56.127Z,1.20
2019-03-11T16:14:25.406Z,1.90
2019-03-11T16:16:54.424Z,2.03
2019-03-11T16:19:23.693Z,1.87
2019-03-11T16:21:52.712Z,2.00
2019-03-11T16:24:21.716Z,1.87
2019-03-11T16:26:50.574Z,1.77
2019-03-11T16:29:19.530Z,1.93
2019-03-11T16:31:48.540Z,1.00
2019-03-11T16:34:17.570Z,1.43
2019-03-11T16:36:46.398Z,1.40
2019-03-11T16:39:15.343Z,2.07
2019-03-11T16:41:44.152Z,1.23
2019-03-11T16:44:13.121Z,0.90
2019-03-11T16:46:42.022Z,1.77
2019-03-11T16:49:11.013Z,1.93
2019-03-11T16:51:39.956Z,2.03
2019-03-11T16:54:08.950Z,0.97
2019-03-11T16:56:37.866Z,1.23
2019-03-11T16:59:06.876Z,1.60
2019-03-11T17:01:35.693Z,2.47
2019-03-11T17:04:04.715Z,1.90
2019-03-11T17:06:33.676Z,2.10
2019-03-11T17:09:02.831Z,2.43
2019-03-11T17:11:31.847Z,1.77
2019-03-11T17:14:00.678Z,2.13
2019-03-11T17:16:29.885Z,2.10
2019-03-11T17:18:58.727Z,1.87
2019-03-11T17:21:27.608Z,2.20
2019-03-11T17:23:56.500Z,2.13
2019-03-11T17:26:25.501Z,2.90
2019-03-11T17:28:54.401Z,2.00
2019-03-11T17:31:23.281Z,2.07
2019-03-11T17:33:52.291Z,2.20
2019-03-11T17:36:21.238Z,2.00
2019-03-11T17:38:50.282Z,2.17
2019-03-11T17:41:19.302Z,2.53
2019-03-11T17:43:48.250Z,2.07
2019-03-11T17:46:17.165Z,2.30
2019-03-11T17:48:46.123Z,2.30
2019-03-11T17:51:15.045Z,2.30
2019-03-11T17:53:43.969Z,1.40
2019-03-11T17:56:13.133Z,1.47
2019-03-11T17:58:41.922Z,2.43
2019-03-11T18:01:10.950Z,3.37
2019-03-11T18:03:39.931Z,3.70
2019-03-11T18:06:11.975Z,2.70
2019-03-11T18:08:39.648Z,2.83
2019-03-11T18:11:08.505Z,2.50
2019-03-11T18:13:37.475Z,1.87
2019-03-11T18:16:06.414Z,2.10
2019-03-11T18:18:35.417Z,2.43
2019-03-11T18:21:06.643Z,2.13
2019-03-11T18:23:34.890Z,2.50
2019-03-11T18:26:03.683Z,2.07
2019-03-11T18:28:32.898Z,2.43
2019-03-11T18:31:02.210Z,2.20
2019-03-11T18:33:31.223Z,1.47
2019-03-11T18:36:00.108Z,2.17
2019-03-11T18:38:29.105Z,1.97
2019-03-11T18:40:57.952Z,2.33
2019-03-11T18:43:26.883Z,2.17
2019-03-11T18:45:55.820Z,2.10
2019-03-11T18:48:24.667Z,2.30
2019-03-11T18:50:53.502Z,1.53
2019-03-11T18:53:22.798Z,1.13
2019-03-11T18:55:51.889Z,2.83
2019-03-11T18:58:20.805Z,2.13
2019-03-11T19:00:49.805Z,2.10
2019-03-11T19:03:18.801Z,2.80
2019-03-11T19:05:47.842Z,2.67
2019-03-11T19:08:16.870Z,1.57
2019-03-11T19:10:45.931Z,3.07
2019-03-11T19:13:14.788Z,1.27
2019-03-11T19:15:43.876Z,2.73
2019-03-11T19:18:12.735Z,3.97
2019-03-11T19:20:41.623Z,2.80
2019-03-11T19:23:10.622Z,2.23
2019-03-11T19:25:41.517Z,1.50
2019-03-11T19:28:10.408Z,3.10
2019-03-11T19:30:39.687Z,2.07
2019-03-11T19:33:11.133Z,2.90
2019-03-11T19:35:39.345Z,2.50
2019-03-11T19:38:08.483Z,2.47
2019-03-11T19:40:37.495Z,2.77
2019-03-11T19:43:06.517Z,2.00
2019-03-11T19:45:35.586Z,2.63
2019-03-11T19:48:04.651Z,2.70
2019-03-11T19:50:33.631Z,2.70
2019-03-11T19:53:02.546Z,2.40
2019-03-11T19:55:31.582Z,3.03
2019-03-11T19:58:00.562Z,2.47
2019-03-11T20:00:29.582Z,2.10
2019-03-11T20:02:58.494Z,2.47
2019-03-11T20:05:27.628Z,2.90
2019-03-11T20:07:56.591Z,2.50
2019-03-11T20:10:25.849Z,2.73
2019-03-11T20:12:55.182Z,2.80
2019-03-11T20:15:24.198Z,1.97
2019-03-11T20:17:53.253Z,5.27
2019-03-11T20:20:22.390Z,2.57
2019-03-11T20:22:51.421Z,2.93
2019-03-11T20:25:22.705Z,2.50
2019-03-11T20:27:51.570Z,2.53
2019-03-11T20:30:21.082Z,2.37
2019-03-11T20:32:51.701Z,5.50
2019-03-11T20:35:20.960Z,3.17
2019-03-11T20:37:50.086Z,3.07
2019-03-11T20:40:19.211Z,3.73
2019-03-11T20:42:48.315Z,3.03
2019-03-11T20:45:17.322Z,2.73
2019-03-11T20:47:47.373Z,2.87
2019-03-11T20:50:16.421Z,2.77
2019-03-11T20:52:45.767Z,2.57
2019-03-11T20:55:14.846Z,3.27
2019-03-11T20:57:43.870Z,3.27
2019-03-11T21:00:15.197Z,4.57
2019-03-11T21:02:44.542Z,4.30
2019-03-11T21:05:14.223Z,4.17
2019-03-11T21:07:44.243Z,4.83
2019-03-11T21:10:15.564Z,4.67
2019-03-11T21:12:44.566Z,3.77
2019-03-11T21:15:14.010Z,4.10
2019-03-11T21:17:43.409Z,4.93
2019-03-11T21:20:13.932Z,4.43
2019-03-11T21:22:43.110Z,4.57
2019-03-11T21:25:13.682Z,3.70
2019-03-11T21:27:42.788Z,4.53
2019-03-11T21:30:17.119Z,4.57
2019-03-11T21:32:47.725Z,4.80
2019-03-11T21:35:16.800Z,4.20
2019-03-11T21:37:45.925Z,4.33
2019-03-11T21:40:16.146Z,4.30
2019-03-11T21:42:45.112Z,4.93
2019-03-11T21:45:14.593Z,4.93
2019-03-11T21:47:43.681Z,3.97
2019-03-11T21:50:15.833Z,5.13
2019-03-11T21:52:44.986Z,4.10
2019-03-11T21:55:13.996Z,3.70
2019-03-11T21:57:43.220Z,5.00
2019-03-11T22:00:14.715Z,4.30
2019-03-11T22:02:43.879Z,3.90
2019-03-11T22:05:12.848Z,4.33
2019-03-11T22:07:42.881Z,4.70
2019-03-11T22:10:12.174Z,3.47
2019-03-11T22:12:41.161Z,4.03
2019-03-11T22:15:11.102Z,4.40
2019-03-11T22:17:40.078Z,3.40
2019-03-11T22:20:10.894Z,3.93
2019-03-11T22:22:40.159Z,3.43
2019-03-11T22:25:10.539Z,3.27
2019-03-11T22:27:39.767Z,3.67
2019-03-11T22:30:14.586Z,3.37
2019-03-11T22:32:44.132Z,4.70
2019-03-11T22:35:13.501Z,4.07
2019-03-11T22:37:42.698Z,4.50
2019-03-11T22:40:12.956Z,4.23
2019-03-11T22:42:43.054Z,3.70
2019-03-11T22:45:16.992Z,3.63
2019-03-11T22:47:46.864Z,3.47
2019-03-11T22:50:20.759Z,3.80
2019-03-11T22:52:55.943Z,3.90
2019-03-11T22:55:27.382Z,3.90
2019-03-11T22:57:57.806Z,3.80
2019-03-11T23:01:00.733Z,3.83
2019-03-11T23:03:31.140Z,3.17
2019-03-11T23:06:04.804Z,3.40
2019-03-11T23:08:34.952Z,5.23
2019-03-11T23:11:15.684Z,5.30
2019-03-11T23:13:44.763Z,4.17
2019-03-11T23:16:14.064Z,3.43
2019-03-11T23:18:43.359Z,3.47
2019-03-11T23:21:15.315Z,3.43
2019-03-11T23:23:47.642Z,3.00
2019-03-11T23:26:16.794Z,3.60
2019-03-11T23:28:45.963Z,3.27
2019-03-11T23:31:16.745Z,3.17
2019-03-11T23:33:47.116Z,3.57
2019-03-11T23:36:16.441Z,3.33
2019-03-11T23:38:45.623Z,2.93
2019-03-11T23:41:15.939Z,2.70
2019-03-11T23:43:49.098Z,3.00
2019-03-11T23:46:18.631Z,3.10
2019-03-11T23:48:47.776Z,3.10
2019-03-11T23:51:32.536Z,3.13
2019-03-11T23:54:02.761Z,4.07
2019-03-11T23:56:34.993Z,3.47
2019-03-11T23:59:04.282Z,3.60
